sensor_id;sensor_type;location;lat;lon;timestamp;P1;durP1;ratioP1;P2;durP2;ratioP2
55172;SDS011;41061;52.822;6.860;2023-10-09T00:01:17;6.20;;;3.30;;
55172;SDS011;41061;52.822;6.860;2023-10-09T00:03:46;9.40;;;3.38;;
55172;SDS011;41061;52.822;6.860;2023-10-09T00:06:17;8.90;;;3.42;;
55172;SDS011;41061;52.822;6.860;2023-10-09T00:08:48;6.90;;;3.65;;
55172;SDS011;41061;52.822;6.860;2023-10-09T00:11:18;11.75;;;4.95;;
55172;SDS011;41061;52.822;6.860;2023-10-09T00:13:45;11.93;;;4.70;;
55172;SDS011;41061;52.822;6.860;2023-10-09T00:16:18;7.65;;;4.15;;
55172;SDS011;41061;52.822;6.860;2023-10-09T00:19:01;9.52;;;4.53;;
55172;SDS011;41061;52.822;6.860;2023-10-09T00:21:39;9.30;;;5.47;;
55172;SDS011;41061;52.822;6.860;2023-10-09T00:24:06;10.52;;;5.03;;
55172;SDS011;41061;52.822;6.860;2023-10-09T00:26:39;10.88;;;5.18;;
55172;SDS011;41061;52.822;6.860;2023-10-09T00:29:09;12.73;;;5.72;;
55172;SDS011;41061;52.822;6.860;2023-10-09T00:31:47;14.73;;;6.40;;
55172;SDS011;41061;52.822;6.860;2023-10-09T00:34:21;15.02;;;6.38;;
55172;SDS011;41061;52.822;6.860;2023-10-09T00:36:47;13.50;;;6.28;;
55172;SDS011;41061;52.822;6.860;2023-10-09T00:39:17;12.10;;;6.13;;
55172;SDS011;41061;52.822;6.860;2023-10-09T00:42:08;15.88;;;6.85;;
55172;SDS011;41061;52.822;6.860;2023-10-09T00:44:38;17.35;;;6.75;;
55172;SDS011;41061;52.822;6.860;2023-10-09T00:47:08;17.80;;;7.20;;
55172;SDS011;41061;52.822;6.860;2023-10-09T00:49:49;15.35;;;7.63;;
55172;SDS011;41061;52.822;6.860;2023-10-09T00:52:33;18.35;;;7.38;;
55172;SDS011;41061;52.822;6.860;2023-10-09T00:55:19;19.17;;;7.57;;
55172;SDS011;41061;52.822;6.860;2023-10-09T00:57:52;16.80;;;8.18;;
55172;SDS011;41061;52.822;6.860;2023-10-09T01:00:25;15.80;;;8.45;;
55172;SDS011;41061;52.822;6.860;2023-10-09T01:03:01;15.35;;;7.72;;
55172;SDS011;41061;52.822;6.860;2023-10-09T01:05:43;19.58;;;8.77;;
55172;SDS011;41061;52.822;6.860;2023-10-09T01:08:20;19.75;;;9.38;;
55172;SDS011;41061;52.822;6.860;2023-10-09T01:13:45;19.73;;;9.23;;
55172;SDS011;41061;52.822;6.860;2023-10-09T01:16:11;17.45;;;8.90;;
55172;SDS011;41061;52.822;6.860;2023-10-09T01:18:42;16.55;;;9.32;;
55172;SDS011;41061;52.822;6.860;2023-10-09T01:21:14;22.92;;;9.85;;
55172;SDS011;41061;52.822;6.860;2023-10-09T01:23:49;24.60;;;9.75;;
55172;SDS011;41061;52.822;6.860;2023-10-09T01:26:31;23.40;;;9.93;;
55172;SDS011;41061;52.822;6.860;2023-10-09T01:31:46;18.73;;;10.25;;
55172;SDS011;41061;52.822;6.860;2023-10-09T01:34:29;20.00;;;10.02;;
55172;SDS011;41061;52.822;6.860;2023-10-09T01:37:18;28.42;;;10.07;;
55172;SDS011;41061;52.822;6.860;2023-10-09T01:39:53;19.52;;;10.30;;
55172;SDS011;41061;52.822;6.860;2023-10-09T01:42:23;21.73;;;10.52;;
55172;SDS011;41061;52.822;6.860;2023-10-09T01:44:56;22.48;;;9.88;;
55172;SDS011;41061;52.822;6.860;2023-10-09T01:47:34;29.73;;;10.85;;
55172;SDS011;41061;52.822;6.860;2023-10-09T01:50:06;19.08;;;10.27;;
55172;SDS011;41061;52.822;6.860;2023-10-09T01:52:45;21.75;;;11.10;;
55172;SDS011;41061;52.822;6.860;2023-10-09T01:55:11;23.13;;;11.60;;
55172;SDS011;41061;52.822;6.860;2023-10-09T01:58:00;22.40;;;11.70;;
55172;SDS011;41061;52.822;6.860;2023-10-09T02:00:45;18.98;;;11.45;;
55172;SDS011;41061;52.822;6.860;2023-10-09T02:03:19;26.20;;;11.93;;
55172;SDS011;41061;52.822;6.860;2023-10-09T02:05:48;28.08;;;12.27;;
55172;SDS011;41061;52.822;6.860;2023-10-09T02:08:18;24.58;;;13.05;;
55172;SDS011;41061;52.822;6.860;2023-10-09T02:10:52;26.23;;;13.48;;
55172;SDS011;41061;52.822;6.860;2023-10-09T02:13:21;27.17;;;13.10;;
55172;SDS011;41061;52.822;6.860;2023-10-09T02:15:55;23.95;;;13.45;;
55172;SDS011;41061;52.822;6.860;2023-10-09T02:18:37;30.70;;;12.43;;
55172;SDS011;41061;52.822;6.860;2023-10-09T02:21:22;25.60;;;13.07;;
55172;SDS011;41061;52.822;6.860;2023-10-09T02:24:14;27.73;;;14.18;;
55172;SDS011;41061;52.822;6.860;2023-10-09T02:26:53;31.65;;;14.10;;
55172;SDS011;41061;52.822;6.860;2023-10-09T02:29:19;28.17;;;13.32;;
55172;SDS011;41061;52.822;6.860;2023-10-09T02:31:49;32.55;;;13.98;;
55172;SDS011;41061;52.822;6.860;2023-10-09T02:34:25;26.10;;;13.88;;
55172;SDS011;41061;52.822;6.860;2023-10-09T02:36:53;32.45;;;14.32;;
55172;SDS011;41061;52.822;6.860;2023-10-09T02:39:30;25.75;;;14.48;;
55172;SDS011;41061;52.822;6.860;2023-10-09T02:42:08;30.30;;;15.23;;
55172;SDS011;41061;52.822;6.860;2023-10-09T02:44:37;27.73;;;14.95;;
55172;SDS011;41061;52.822;6.860;2023-10-09T02:47:14;28.23;;;15.40;;
55172;SDS011;41061;52.822;6.860;2023-10-09T02:49:45;29.42;;;14.68;;
55172;SDS011;41061;52.822;6.860;2023-10-09T02:52:13;26.80;;;15.13;;
55172;SDS011;41061;52.822;6.860;2023-10-09T02:54:43;33.03;;;15.82;;
55172;SDS011;41061;52.822;6.860;2023-10-09T02:57:12;36.17;;;15.85;;
55172;SDS011;41061;52.822;6.860;2023-10-09T02:59:47;34.15;;;16.45;;
55172;SDS011;41061;52.822;6.860;2023-10-09T03:02:16;37.85;;;17.98;;
55172;SDS011;41061;52.822;6.860;2023-10-09T03:04:43;34.17;;;17.85;;
55172;SDS011;41061;52.822;6.860;2023-10-09T03:07:09;32.58;;;17.10;;
55172;SDS011;41061;52.822;6.860;2023-10-09T03:09:38;35.00;;;16.35;;
55172;SDS011;41061;52.822;6.860;2023-10-09T03:12:06;30.63;;;17.38;;
55172;SDS011;41061;52.822;6.860;2023-10-09T03:14:35;36.50;;;17.08;;
55172;SDS011;41061;52.822;6.860;2023-10-09T03:17:03;31.92;;;17.52;;
55172;SDS011;41061;52.822;6.860;2023-10-09T03:19:31;35.55;;;17.08;;
55172;SDS011;41061;52.822;6.860;2023-10-09T03:22:06;38.40;;;18.98;;
55172;SDS011;41061;52.822;6.860;2023-10-09T03:24:35;49.53;;;18.15;;
55172;SDS011;41061;52.822;6.860;2023-10-09T03:27:02;40.33;;;20.38;;
55172;SDS011;41061;52.822;6.860;2023-10-09T03:29:28;43.35;;;19.80;;
55172;SDS011;41061;52.822;6.860;2023-10-09T03:31:53;41.13;;;20.05;;
55172;SDS011;41061;52.822;6.860;2023-10-09T03:34:21;44.80;;;21.80;;
55172;SDS011;41061;52.822;6.860;2023-10-09T03:36:47;44.10;;;21.15;;
55172;SDS011;41061;52.822;6.860;2023-10-09T03:39:13;43.13;;;21.08;;
55172;SDS011;41061;52.822;6.860;2023-10-09T03:41:58;46.30;;;22.17;;
55172;SDS011;41061;52.822;6.860;2023-10-09T03:44:24;45.38;;;22.45;;
55172;SDS011;41061;52.822;6.860;2023-10-09T03:46:53;47.03;;;22.65;;
55172;SDS011;41061;52.822;6.860;2023-10-09T03:49:19;56.53;;;24.58;;
55172;SDS011;41061;52.822;6.860;2023-10-09T03:51:51;49.35;;;24.50;;
55172;SDS011;41061;52.822;6.860;2023-10-09T03:54:17;47.30;;;25.08;;
55172;SDS011;41061;52.822;6.860;2023-10-09T03:56:48;52.88;;;26.00;;
55172;SDS011;41061;52.822;6.860;2023-10-09T03:59:20;55.95;;;25.83;;
55172;SDS011;41061;52.822;6.860;2023-10-09T04:01:49;54.00;;;25.95;;
55172;SDS011;41061;52.822;6.860;2023-10-09T04:04:18;52.92;;;25.60;;
55172;SDS011;41061;52.822;6.860;2023-10-09T04:06:48;53.35;;;25.95;;
55172;SDS011;41061;52.822;6.860;2023-10-09T04:09:13;57.03;;;25.85;;
55172;SDS011;41061;52.822;6.860;2023-10-09T04:11:53;51.08;;;25.88;;
55172;SDS011;41061;52.822;6.860;2023-10-09T04:14:42;54.10;;;26.33;;
55172;SDS011;41061;52.822;6.860;2023-10-09T04:17:22;54.35;;;25.45;;
55172;SDS011;41061;52.822;6.860;2023-10-09T04:19:55;58.25;;;26.90;;
55172;SDS011;41061;52.822;6.860;2023-10-09T04:22:40;54.40;;;25.80;;
55172;SDS011;41061;52.822;6.860;2023-10-09T04:25:25;51.83;;;26.17;;
55172;SDS011;41061;52.822;6.860;2023-10-09T04:28:00;53.72;;;26.40;;
55172;SDS011;41061;52.822;6.860;2023-10-09T04:30:38;55.60;;;25.85;;
55172;SDS011;41061;52.822;6.860;2023-10-09T04:33:18;58.53;;;25.48;;
55172;SDS011;41061;52.822;6.860;2023-10-09T04:36:08;54.63;;;25.10;;
55172;SDS011;41061;52.822;6.860;2023-10-09T04:38:46;52.58;;;26.05;;
55172;SDS011;41061;52.822;6.860;2023-10-09T04:41:28;60.83;;;27.48;;
55172;SDS011;41061;52.822;6.860;2023-10-09T04:43:57;56.60;;;28.20;;
55172;SDS011;41061;52.822;6.860;2023-10-09T04:46:42;58.50;;;25.95;;
55172;SDS011;41061;52.822;6.860;2023-10-09T04:49:31;53.25;;;27.75;;
55172;SDS011;41061;52.822;6.860;2023-10-09T04:52:11;58.63;;;27.85;;
55172;SDS011;41061;52.822;6.860;2023-10-09T04:54:54;56.08;;;27.90;;
55172;SDS011;41061;52.822;6.860;2023-10-09T04:57:29;57.72;;;28.52;;
55172;SDS011;41061;52.822;6.860;2023-10-09T05:00:03;64.93;;;28.63;;
55172;SDS011;41061;52.822;6.860;2023-10-09T05:02:48;57.47;;;26.65;;
55172;SDS011;41061;52.822;6.860;2023-10-09T05:05:23;63.63;;;29.08;;
55172;SDS011;41061;52.822;6.860;2023-10-09T05:08:14;58.85;;;28.52;;
55172;SDS011;41061;52.822;6.860;2023-10-09T05:11:02;62.60;;;30.10;;
55172;SDS011;41061;52.822;6.860;2023-10-09T05:16:13;66.60;;;30.20;;
55172;SDS011;41061;52.822;6.860;2023-10-09T05:18:45;66.25;;;29.15;;
55172;SDS011;41061;52.822;6.860;2023-10-09T05:21:32;61.00;;;28.02;;
55172;SDS011;41061;52.822;6.860;2023-10-09T05:24:08;63.03;;;28.38;;
55172;SDS011;41061;52.822;6.860;2023-10-09T05:26:37;63.60;;;29.92;;
55172;SDS011;41061;52.822;6.860;2023-10-09T05:29:13;67.10;;;29.45;;
55172;SDS011;41061;52.822;6.860;2023-10-09T05:31:59;63.45;;;29.30;;
55172;SDS011;41061;52.822;6.860;2023-10-09T05:34:37;61.42;;;29.73;;
55172;SDS011;41061;52.822;6.860;2023-10-09T05:37:38;64.40;;;29.33;;
55172;SDS011;41061;52.822;6.860;2023-10-09T05:40:12;69.93;;;30.15;;
55172;SDS011;41061;52.822;6.860;2023-10-09T05:42:41;61.22;;;29.02;;
55172;SDS011;41061;52.822;6.860;2023-10-09T05:45:11;58.80;;;28.02;;
55172;SDS011;41061;52.822;6.860;2023-10-09T05:47:46;65.50;;;30.35;;
55172;SDS011;41061;52.822;6.860;2023-10-09T05:50:22;61.15;;;28.63;;
55172;SDS011;41061;52.822;6.860;2023-10-09T05:52:49;67.60;;;29.77;;
55172;SDS011;41061;52.822;6.860;2023-10-09T05:55:19;63.30;;;29.63;;
55172;SDS011;41061;52.822;6.860;2023-10-09T05:57:54;67.00;;;27.52;;
55172;SDS011;41061;52.822;6.860;2023-10-09T06:00:39;62.85;;;29.08;;
55172;SDS011;41061;52.822;6.860;2023-10-09T06:03:24;58.78;;;26.83;;
55172;SDS011;41061;52.822;6.860;2023-10-09T06:06:12;60.35;;;27.23;;
55172;SDS011;41061;52.822;6.860;2023-10-09T06:08:57;57.35;;;27.45;;
55172;SDS011;41061;52.822;6.860;2023-10-09T06:11:38;57.42;;;25.85;;
55172;SDS011;41061;52.822;6.860;2023-10-09T06:14:05;58.83;;;26.75;;
55172;SDS011;41061;52.822;6.860;2023-10-09T06:16:36;58.20;;;25.30;;
55172;SDS011;41061;52.822;6.860;2023-10-09T06:19:21;57.10;;;26.55;;
55172;SDS011;41061;52.822;6.860;2023-10-09T06:21:48;55.65;;;25.80;;
55172;SDS011;41061;52.822;6.860;2023-10-09T06:24:16;47.95;;;24.30;;
55172;SDS011;41061;52.822;6.860;2023-10-09T06:26:48;60.35;;;24.45;;
55172;SDS011;41061;52.822;6.860;2023-10-09T06:29:23;53.60;;;23.10;;
55172;SDS011;41061;52.822;6.860;2023-10-09T06:32:05;48.95;;;22.30;;
55172;SDS011;41061;52.822;6.860;2023-10-09T06:34:47;48.05;;;22.42;;
55172;SDS011;41061;52.822;6.860;2023-10-09T06:37:17;48.03;;;22.40;;
55172;SDS011;41061;52.822;6.860;2023-10-09T06:39:52;50.55;;;21.88;;
55172;SDS011;41061;52.822;6.860;2023-10-09T06:42:22;43.45;;;21.58;;
55172;SDS011;41061;52.822;6.860;2023-10-09T06:45:03;44.15;;;20.88;;
55172;SDS011;41061;52.822;6.860;2023-10-09T06:47:33;44.70;;;21.23;;
55172;SDS011;41061;52.822;6.860;2023-10-09T06:50:15;35.50;;;18.08;;
55172;SDS011;41061;52.822;6.860;2023-10-09T06:52:50;45.45;;;19.55;;
55172;SDS011;41061;52.822;6.860;2023-10-09T06:55:43;37.90;;;18.52;;
55172;SDS011;41061;52.822;6.860;2023-10-09T06:58:16;36.22;;;16.98;;
55172;SDS011;41061;52.822;6.860;2023-10-09T07:00:51;37.45;;;16.17;;
55172;SDS011;41061;52.822;6.860;2023-10-09T07:03:29;41.30;;;17.13;;
55172;SDS011;41061;52.822;6.860;2023-10-09T07:06:07;34.00;;;15.27;;
55172;SDS011;41061;52.822;6.860;2023-10-09T07:08:56;27.20;;;14.38;;
55172;SDS011;41061;52.822;6.860;2023-10-09T07:11:34;29.87;;;14.63;;
55172;SDS011;41061;52.822;6.860;2023-10-09T07:14:04;29.10;;;13.50;;
55172;SDS011;41061;52.822;6.860;2023-10-09T07:16:54;22.85;;;13.23;;
55172;SDS011;41061;52.822;6.860;2023-10-09T07:19:27;25.98;;;11.50;;
55172;SDS011;41061;52.822;6.860;2023-10-09T07:21:59;24.73;;;12.20;;
55172;SDS011;41061;52.822;6.860;2023-10-09T07:24:41;32.40;;;12.20;;
55172;SDS011;41061;52.822;6.860;2023-10-09T07:27:16;22.65;;;12.07;;
55172;SDS011;41061;52.822;6.860;2023-10-09T07:29:42;28.67;;;12.27;;
55172;SDS011;41061;52.822;6.860;2023-10-09T07:32:15;25.88;;;10.73;;
55172;SDS011;41061;52.822;6.860;2023-10-09T07:34:50;24.23;;;11.55;;
55172;SDS011;41061;52.822;6.860;2023-10-09T07:37:22;23.23;;;11.25;;
55172;SDS011;41061;52.822;6.860;2023-10-09T07:39:51;32.92;;;12.10;;
55172;SDS011;41061;52.822;6.860;2023-10-09T07:42:23;22.50;;;10.33;;
55172;SDS011;41061;52.822;6.860;2023-10-09T07:45:02;22.67;;;10.70;;
55172;SDS011;41061;52.822;6.860;2023-10-09T07:47:46;23.63;;;11.25;;
55172;SDS011;41061;52.822;6.860;2023-10-09T07:50:26;20.50;;;10.20;;
55172;SDS011;41061;52.822;6.860;2023-10-09T07:53:06;22.55;;;9.32;;
55172;SDS011;41061;52.822;6.860;2023-10-09T07:55:51;22.35;;;10.13;;
55172;SDS011;41061;52.822;6.860;2023-10-09T07:58:24;19.75;;;10.07;;
55172;SDS011;41061;52.822;6.860;2023-10-09T08:00:53;19.10;;;10.10;;
55172;SDS011;41061;52.822;6.860;2023-10-09T08:03:36;22.35;;;10.20;;
55172;SDS011;41061;52.822;6.860;2023-10-09T08:06:03;22.73;;;9.45;;
55172;SDS011;41061;52.822;6.860;2023-10-09T08:08:51;20.88;;;9.38;;
55172;SDS011;41061;52.822;6.860;2023-10-09T08:11:26;20.50;;;9.07;;
55172;SDS011;41061;52.822;6.860;2023-10-09T08:14:08;20.58;;;10.35;;
55172;SDS011;41061;52.822;6.860;2023-10-09T08:16:52;19.80;;;9.23;;
55172;SDS011;41061;52.822;6.860;2023-10-09T08:19:37;22.85;;;8.75;;
55172;SDS011;41061;52.822;6.860;2023-10-09T08:22:20;19.48;;;9.82;;
55172;SDS011;41061;52.822;6.860;2023-10-09T08:24:50;22.58;;;9.00;;
55172;SDS011;41061;52.822;6.860;2023-10-09T08:27:25;22.42;;;9.85;;
55172;SDS011;41061;52.822;6.860;2023-10-09T08:30:12;19.13;;;9.60;;
55172;SDS011;41061;52.822;6.860;2023-10-09T08:32:48;20.98;;;9.00;;
55172;SDS011;41061;52.822;6.860;2023-10-09T08:35:32;23.95;;;9.15;;
55172;SDS011;41061;52.822;6.860;2023-10-09T08:37:59;18.30;;;9.10;;
55172;SDS011;41061;52.822;6.860;2023-10-09T08:40:37;19.17;;;9.18;;
55172;SDS011;41061;52.822;6.860;2023-10-09T08:45:35;19.85;;;8.70;;
55172;SDS011;41061;52.822;6.860;2023-10-09T08:48:01;22.42;;;9.40;;
55172;SDS011;41061;52.822;6.860;2023-10-09T08:50:30;20.60;;;9.00;;
55172;SDS011;41061;52.822;6.860;2023-10-09T08:52:56;22.42;;;8.95;;
55172;SDS011;41061;52.822;6.860;2023-10-09T08:55:22;20.13;;;9.43;;
55172;SDS011;41061;52.822;6.860;2023-10-09T08:57:48;21.67;;;9.00;;
55172;SDS011;41061;52.822;6.860;2023-10-09T09:00:18;25.20;;;9.30;;
55172;SDS011;41061;52.822;6.860;2023-10-09T09:02:50;23.75;;;9.98;;
55172;SDS011;41061;52.822;6.860;2023-10-09T09:05:18;22.67;;;8.77;;
55172;SDS011;41061;52.822;6.860;2023-10-09T09:07:54;18.45;;;8.90;;
55172;SDS011;41061;52.822;6.860;2023-10-09T09:10:27;27.35;;;10.20;;
55172;SDS011;41061;52.822;6.860;2023-10-09T09:13:14;26.45;;;9.63;;
55172;SDS011;41061;52.822;6.860;2023-10-09T09:15:46;26.55;;;10.70;;
55172;SDS011;41061;52.822;6.860;2023-10-09T09:18:12;20.95;;;9.02;;
55172;SDS011;41061;52.822;6.860;2023-10-09T09:20:42;19.77;;;9.05;;
55172;SDS011;41061;52.822;6.860;2023-10-09T09:23:11;24.17;;;10.93;;
55172;SDS011;41061;52.822;6.860;2023-10-09T09:25:42;23.38;;;9.80;;
55172;SDS011;41061;52.822;6.860;2023-10-09T09:28:13;24.58;;;10.25;;
55172;SDS011;41061;52.822;6.860;2023-10-09T09:30:44;27.83;;;9.15;;
55172;SDS011;41061;52.822;6.860;2023-10-09T09:33:26;23.05;;;9.30;;
55172;SDS011;41061;52.822;6.860;2023-10-09T09:36:05;20.33;;;9.32;;
55172;SDS011;41061;52.822;6.860;2023-10-09T09:38:33;27.48;;;10.70;;
55172;SDS011;41061;52.822;6.860;2023-10-09T09:41:18;26.25;;;9.80;;
55172;SDS011;41061;52.822;6.860;2023-10-09T09:43:53;22.13;;;9.68;;
55172;SDS011;41061;52.822;6.860;2023-10-09T09:46:27;32.40;;;10.00;;
55172;SDS011;41061;52.822;6.860;2023-10-09T09:49:00;23.65;;;10.23;;
55172;SDS011;41061;52.822;6.860;2023-10-09T09:51:29;25.73;;;9.88;;
55172;SDS011;41061;52.822;6.860;2023-10-09T09:53:57;29.85;;;10.52;;
55172;SDS011;41061;52.822;6.860;2023-10-09T09:56:26;27.50;;;10.15;;
55172;SDS011;41061;52.822;6.860;2023-10-09T09:58:54;24.95;;;9.68;;
55172;SDS011;41061;52.822;6.860;2023-10-09T10:01:26;21.23;;;10.20;;
55172;SDS011;41061;52.822;6.860;2023-10-09T10:04:30;25.65;;;10.60;;
55172;SDS011;41061;52.822;6.860;2023-10-09T10:06:55;22.17;;;9.35;;
55172;SDS011;41061;52.822;6.860;2023-10-09T10:12:07;24.08;;;9.82;;
55172;SDS011;41061;52.822;6.860;2023-10-09T10:14:52;18.90;;;8.35;;
55172;SDS011;41061;52.822;6.860;2023-10-09T10:17:25;21.13;;;8.93;;
55172;SDS011;41061;52.822;6.860;2023-10-09T10:22:28;21.58;;;8.45;;
55172;SDS011;41061;52.822;6.860;2023-10-09T10:24:58;21.13;;;9.00;;
55172;SDS011;41061;52.822;6.860;2023-10-09T10:27:28;18.77;;;8.80;;
55172;SDS011;41061;52.822;6.860;2023-10-09T10:32:54;26.73;;;9.95;;
55172;SDS011;41061;52.822;6.860;2023-10-09T10:35:24;24.92;;;9.32;;
55172;SDS011;41061;52.822;6.860;2023-10-09T10:43:37;18.05;;;8.30;;
55172;SDS011;41061;52.822;6.860;2023-10-09T10:46:15;23.00;;;9.27;;
55172;SDS011;41061;52.822;6.860;2023-10-09T10:48:54;24.30;;;9.30;;
55172;SDS011;41061;52.822;6.860;2023-10-09T10:51:43;19.98;;;8.13;;
55172;SDS011;41061;52.822;6.860;2023-10-09T10:54:24;21.38;;;8.68;;
55172;SDS011;41061;52.822;6.860;2023-10-09T10:57:17;19.67;;;8.20;;
55172;SDS011;41061;52.822;6.860;2023-10-09T10:59:45;24.30;;;8.98;;
55172;SDS011;41061;52.822;6.860;2023-10-09T11:02:14;19.13;;;8.57;;
55172;SDS011;41061;52.822;6.860;2023-10-09T11:04:41;23.30;;;9.25;;
55172;SDS011;41061;52.822;6.860;2023-10-09T11:07:08;20.40;;;9.68;;
55172;SDS011;41061;52.822;6.860;2023-10-09T11:12:31;24.38;;;9.05;;
55172;SDS011;41061;52.822;6.860;2023-10-09T11:15:14;22.25;;;8.55;;
55172;SDS011;41061;52.822;6.860;2023-10-09T11:20:25;20.13;;;8.05;;
55172;SDS011;41061;52.822;6.860;2023-10-09T11:22:57;21.08;;;8.48;;
55172;SDS011;41061;52.822;6.860;2023-10-09T11:25:35;21.52;;;8.48;;
55172;SDS011;41061;52.822;6.860;2023-10-09T11:28:19;16.92;;;7.65;;
55172;SDS011;41061;52.822;6.860;2023-10-09T11:31:10;19.95;;;8.02;;
55172;SDS011;41061;52.822;6.860;2023-10-09T11:33:46;17.20;;;7.80;;
55172;SDS011;41061;52.822;6.860;2023-10-09T11:36:20;22.15;;;7.47;;
55172;SDS011;41061;52.822;6.860;2023-10-09T11:38:59;21.27;;;8.05;;
55172;SDS011;41061;52.822;6.860;2023-10-09T11:41:45;24.80;;;8.23;;
55172;SDS011;41061;52.822;6.860;2023-10-09T11:44:14;20.05;;;8.00;;
55172;SDS011;41061;52.822;6.860;2023-10-09T11:47:02;20.63;;;7.97;;
55172;SDS011;41061;52.822;6.860;2023-10-09T11:49:53;27.35;;;8.63;;
55172;SDS011;41061;52.822;6.860;2023-10-09T11:52:55;22.63;;;7.93;;
55172;SDS011;41061;52.822;6.860;2023-10-09T11:55:33;22.60;;;9.18;;
55172;SDS011;41061;52.822;6.860;2023-10-09T11:57:59;19.45;;;8.43;;
55172;SDS011;41061;52.822;6.860;2023-10-09T12:00:27;20.85;;;8.35;;
55172;SDS011;41061;52.822;6.860;2023-10-09T12:03:06;21.05;;;8.00;;
55172;SDS011;41061;52.822;6.860;2023-10-09T12:05:32;25.05;;;8.13;;
55172;SDS011;41061;52.822;6.860;2023-10-09T12:07:58;24.92;;;6.95;;
55172;SDS011;41061;52.822;6.860;2023-10-09T12:10:26;22.50;;;7.72;;
55172;SDS011;41061;52.822;6.860;2023-10-09T12:12:53;19.98;;;7.38;;
55172;SDS011;41061;52.822;6.860;2023-10-09T12:15:19;20.15;;;7.22;;
55172;SDS011;41061;52.822;6.860;2023-10-09T12:17:46;20.45;;;7.07;;
55172;SDS011;41061;52.822;6.860;2023-10-09T12:20:13;24.48;;;7.10;;
55172;SDS011;41061;52.822;6.860;2023-10-09T12:22:56;17.23;;;6.93;;
55172;SDS011;41061;52.822;6.860;2023-10-09T12:25:23;18.25;;;6.22;;
55172;SDS011;41061;52.822;6.860;2023-10-09T12:27:49;13.05;;;5.90;;
55172;SDS011;41061;52.822;6.860;2023-10-09T12:30:15;11.95;;;6.03;;
55172;SDS011;41061;52.822;6.860;2023-10-09T12:32:41;23.85;;;6.10;;
55172;SDS011;41061;52.822;6.860;2023-10-09T12:35:06;16.02;;;5.28;;
55172;SDS011;41061;52.822;6.860;2023-10-09T12:37:42;14.02;;;4.88;;
55172;SDS011;41061;52.822;6.860;2023-10-09T12:40:08;19.73;;;6.07;;
55172;SDS011;41061;52.822;6.860;2023-10-09T12:42:36;13.20;;;5.28;;
55172;SDS011;41061;52.822;6.860;2023-10-09T12:45:02;19.55;;;5.50;;
55172;SDS011;41061;52.822;6.860;2023-10-09T12:47:34;14.27;;;5.22;;
55172;SDS011;41061;52.822;6.860;2023-10-09T12:50:04;17.77;;;5.53;;
55172;SDS011;41061;52.822;6.860;2023-10-09T12:52:35;10.80;;;4.30;;
55172;SDS011;41061;52.822;6.860;2023-10-09T12:55:02;15.73;;;4.32;;
55172;SDS011;41061;52.822;6.860;2023-10-09T12:57:32;13.88;;;4.68;;
55172;SDS011;41061;52.822;6.860;2023-10-09T12:59:58;13.02;;;4.30;;
55172;SDS011;41061;52.822;6.860;2023-10-09T13:02:24;15.57;;;4.63;;
55172;SDS011;41061;52.822;6.860;2023-10-09T13:04:58;13.60;;;4.85;;
55172;SDS011;41061;52.822;6.860;2023-10-09T13:07:25;12.65;;;4.65;;
55172;SDS011;41061;52.822;6.860;2023-10-09T13:09:51;14.25;;;4.57;;
55172;SDS011;41061;52.822;6.860;2023-10-09T13:12:37;15.68;;;4.53;;
55172;SDS011;41061;52.822;6.860;2023-10-09T13:15:09;13.38;;;4.53;;
55172;SDS011;41061;52.822;6.860;2023-10-09T13:17:36;12.98;;;3.70;;
55172;SDS011;41061;52.822;6.860;2023-10-09T13:20:03;13.25;;;3.60;;
55172;SDS011;41061;52.822;6.860;2023-10-09T13:22:41;9.73;;;3.47;;
55172;SDS011;41061;52.822;6.860;2023-10-09T13:25:08;10.32;;;3.72;;
55172;SDS011;41061;52.822;6.860;2023-10-09T13:27:40;9.25;;;3.70;;
55172;SDS011;41061;52.822;6.860;2023-10-09T13:30:07;7.97;;;3.10;;
55172;SDS011;41061;52.822;6.860;2023-10-09T13:32:35;15.68;;;4.20;;
55172;SDS011;41061;52.822;6.860;2023-10-09T13:35:04;14.80;;;3.97;;
55172;SDS011;41061;52.822;6.860;2023-10-09T13:37:31;11.13;;;3.47;;
55172;SDS011;41061;52.822;6.860;2023-10-09T13:40:04;14.73;;;3.83;;
55172;SDS011;41061;52.822;6.860;2023-10-09T13:42:36;14.73;;;4.43;;
55172;SDS011;41061;52.822;6.860;2023-10-09T13:45:03;10.27;;;3.30;;
55172;SDS011;41061;52.822;6.860;2023-10-09T13:47:41;14.57;;;3.85;;
55172;SDS011;41061;52.822;6.860;2023-10-09T13:50:10;10.57;;;3.15;;
55172;SDS011;41061;52.822;6.860;2023-10-09T13:52:36;12.20;;;3.78;;
55172;SDS011;41061;52.822;6.860;2023-10-09T13:55:06;13.13;;;3.80;;
55172;SDS011;41061;52.822;6.860;2023-10-09T13:57:42;9.23;;;3.35;;
55172;SDS011;41061;52.822;6.860;2023-10-09T14:00:19;12.68;;;3.63;;
55172;SDS011;41061;52.822;6.860;2023-10-09T14:02:58;9.75;;;2.95;;
55172;SDS011;41061;52.822;6.860;2023-10-09T14:05:29;9.60;;;3.17;;
55172;SDS011;41061;52.822;6.860;2023-10-09T14:07:54;11.00;;;3.28;;
55172;SDS011;41061;52.822;6.860;2023-10-09T14:10:25;12.30;;;3.30;;
55172;SDS011;41061;52.822;6.860;2023-10-09T14:12:55;9.48;;;2.53;;
55172;SDS011;41061;52.822;6.860;2023-10-09T14:15:22;15.82;;;2.83;;
55172;SDS011;41061;52.822;6.860;2023-10-09T14:17:48;10.65;;;2.65;;
55172;SDS011;41061;52.822;6.860;2023-10-09T14:20:21;11.77;;;3.38;;
55172;SDS011;41061;52.822;6.860;2023-10-09T14:22:59;9.80;;;3.03;;
55172;SDS011;41061;52.822;6.860;2023-10-09T14:25:32;15.75;;;3.50;;
55172;SDS011;41061;52.822;6.860;2023-10-09T14:28:02;9.93;;;2.97;;
55172;SDS011;41061;52.822;6.860;2023-10-09T14:30:32;11.05;;;3.08;;
55172;SDS011;41061;52.822;6.860;2023-10-09T14:33:10;12.25;;;2.75;;
55172;SDS011;41061;52.822;6.860;2023-10-09T14:35:42;13.63;;;2.90;;
55172;SDS011;41061;52.822;6.860;2023-10-09T14:38:10;16.67;;;3.78;;
55172;SDS011;41061;52.822;6.860;2023-10-09T14:40:44;11.70;;;2.70;;
55172;SDS011;41061;52.822;6.860;2023-10-09T14:43:11;11.80;;;2.42;;
55172;SDS011;41061;52.822;6.860;2023-10-09T14:45:50;6.55;;;2.63;;
55172;SDS011;41061;52.822;6.860;2023-10-09T14:48:18;7.53;;;2.55;;
55172;SDS011;41061;52.822;6.860;2023-10-09T14:50:51;8.93;;;2.50;;
55172;SDS011;41061;52.822;6.860;2023-10-09T14:53:22;13.98;;;3.08;;
55172;SDS011;41061;52.822;6.860;2023-10-09T14:55:58;8.52;;;2.28;;
55172;SDS011;41061;52.822;6.860;2023-10-09T15:00:55;9.70;;;2.63;;
55172;SDS011;41061;52.822;6.860;2023-10-09T15:03:22;6.82;;;2.60;;
55172;SDS011;41061;52.822;6.860;2023-10-09T15:05:48;7.97;;;2.53;;
55172;SDS011;41061;52.822;6.860;2023-10-09T15:08:14;9.35;;;2.67;;
55172;SDS011;41061;52.822;6.860;2023-10-09T15:10:44;7.80;;;2.38;;
55172;SDS011;41061;52.822;6.860;2023-10-09T15:13:14;7.20;;;2.45;;
55172;SDS011;41061;52.822;6.860;2023-10-09T15:15:43;7.00;;;2.45;;
55172;SDS011;41061;52.822;6.860;2023-10-09T15:18:11;12.52;;;4.38;;
55172;SDS011;41061;52.822;6.860;2023-10-09T15:20:39;11.60;;;3.65;;
55172;SDS011;41061;52.822;6.860;2023-10-09T15:23:06;9.10;;;2.42;;
55172;SDS011;41061;52.822;6.860;2023-10-09T15:25:33;10.52;;;3.72;;
55172;SDS011;41061;52.822;6.860;2023-10-09T15:27:59;8.10;;;3.22;;
55172;SDS011;41061;52.822;6.860;2023-10-09T15:30:28;8.90;;;3.10;;
55172;SDS011;41061;52.822;6.860;2023-10-09T15:32:57;16.20;;;3.38;;
55172;SDS011;41061;52.822;6.860;2023-10-09T15:35:22;15.27;;;3.22;;
55172;SDS011;41061;52.822;6.860;2023-10-09T15:37:48;15.38;;;5.22;;
55172;SDS011;41061;52.822;6.860;2023-10-09T15:40:17;12.77;;;3.17;;
55172;SDS011;41061;52.822;6.860;2023-10-09T15:42:49;8.18;;;2.80;;